createdAt,value
2019-02-26T00:04:44.438Z,13.8
2019-02-26T00:09:53.553Z,14.9
2019-02-26T00:15:02.377Z,13.7
2019-02-26T00:20:10.224Z,12.3
2019-02-26T00:25:12.766Z,13.7
2019-02-26T00:30:16.583Z,12.9
2019-02-26T00:35:25.198Z,12.1
2019-02-26T00:40:34.262Z,12.1
2019-02-26T00:45:36.870Z,12.2
2019-02-26T00:50:43.966Z,11.1
2019-02-26T00:55:51.579Z,11.6
2019-02-26T01:00:58.009Z,12.6
2019-02-26T01:06:04.073Z,13
2019-02-26T01:11:13.173Z,13.9
2019-02-26T01:16:18.774Z,10.6
2019-02-26T01:21:26.198Z,11.2
2019-02-26T01:26:31.256Z,10.8
2019-02-26T01:31:37.154Z,11
2019-02-26T01:36:42.616Z,10.9
2019-02-26T01:41:45.976Z,12.9
2019-02-26T01:46:53.333Z,10.4
2019-02-26T01:51:58.321Z,10.2
2019-02-26T01:57:03.813Z,11.2
2019-02-26T02:02:17.259Z,10
2019-02-26T02:07:21.233Z,11.1
2019-02-26T02:12:25.928Z,10.8
2019-02-26T02:17:31.596Z,10.9
2019-02-26T02:22:35.169Z,10.4
2019-02-26T02:27:37.436Z,9.2
2019-02-26T02:32:42.431Z,10.9
2019-02-26T02:37:43.461Z,9.8
2019-02-26T02:42:49.561Z,9.6
2019-02-26T02:48:00.275Z,9.7
2019-02-26T02:53:05.033Z,12.3
2019-02-26T02:58:13.000Z,9.6
2019-02-26T03:03:19.004Z,11.2
2019-02-26T03:08:24.024Z,10.9
2019-02-26T03:13:29.576Z,10
2019-02-26T03:18:34.793Z,15.3
2019-02-26T03:23:41.262Z,10.3
2019-02-26T03:28:42.089Z,9.5
2019-02-26T03:33:46.913Z,12.9
2019-02-26T03:38:54.558Z,9.4
2019-02-26T03:43:58.148Z,9.4
2019-02-26T03:49:02.670Z,9.5
2019-02-26T03:54:09.020Z,9.8
2019-02-26T03:59:14.447Z,9
2019-02-26T04:04:20.536Z,11
2019-02-26T04:09:26.801Z,9.7
2019-02-26T04:14:31.800Z,9.3
2019-02-26T04:19:36.746Z,8.6
2019-02-26T04:24:38.056Z,9.4
2019-02-26T04:29:44.096Z,11.5
2019-02-26T04:34:43.956Z,10
2019-02-26T04:39:51.745Z,9.6
2019-02-26T04:44:58.792Z,14.5
2019-02-26T04:50:05.504Z,9.5
2019-02-26T04:55:04.415Z,12.1
2019-02-26T05:00:10.661Z,9.6
2019-02-26T05:05:16.387Z,8.8
2019-02-26T05:10:24.061Z,10.2
2019-02-26T05:15:30.834Z,14.1
2019-02-26T05:20:39.867Z,8
2019-02-26T05:25:44.838Z,9
2019-02-26T05:30:51.360Z,11.5
2019-02-26T05:35:56.896Z,10.9
2019-02-26T05:41:01.963Z,16.5
2019-02-26T05:46:07.280Z,16.3
2019-02-26T05:51:12.691Z,20.8
2019-02-26T05:56:20.617Z,21.5
2019-02-26T06:01:27.807Z,17.4
2019-02-26T06:06:33.156Z,14.2
2019-02-26T06:11:41.341Z,12.7
2019-02-26T06:16:46.116Z,17.6
2019-02-26T06:21:52.226Z,12.4
2019-02-26T06:26:50.606Z,11.7
2019-02-26T06:31:56.156Z,14.7
2019-02-26T06:37:01.416Z,9.7
2019-02-26T06:42:02.994Z,14.7
2019-02-26T06:47:08.967Z,11.1
2019-02-26T06:52:16.015Z,11.7
2019-02-26T06:57:23.273Z,10.1
2019-02-26T07:02:29.132Z,13.4
2019-02-26T07:07:33.462Z,16.3
2019-02-26T07:12:40.522Z,12.4
2019-02-26T07:17:45.847Z,11.4
2019-02-26T07:22:51.825Z,13.7
2019-02-26T07:27:58.641Z,16.4
2019-02-26T07:33:07.982Z,12.5
2019-02-26T07:38:09.707Z,18.2
2019-02-26T07:43:17.824Z,15
2019-02-26T07:48:20.606Z,15.4
2019-02-26T07:53:26.095Z,12.8
2019-02-26T07:58:33.157Z,13.7
2019-02-26T08:03:36.504Z,12.4
2019-02-26T08:08:42.046Z,15.5
2019-02-26T08:13:42.623Z,15.3
2019-02-26T08:18:47.360Z,13.1
2019-02-26T08:23:52.770Z,14.3
2019-02-26T08:29:00.139Z,11.6
2019-02-26T08:34:04.238Z,11.4
2019-02-26T08:39:09.354Z,11.4
2019-02-26T08:44:09.484Z,11.7
2019-02-26T08:49:15.570Z,11.9
2019-02-26T08:54:20.707Z,11.4
2019-02-26T08:59:17.761Z,9.6
2019-02-26T09:04:25.360Z,11.6
2019-02-26T09:09:32.682Z,10.3
2019-02-26T09:14:40.286Z,10.9
2019-02-26T09:19:43.351Z,12.8
2019-02-26T09:24:49.339Z,12
2019-02-26T09:29:56.230Z,19.2
2019-02-26T09:35:04.704Z,13.7
2019-02-26T09:40:11.273Z,14.1
2019-02-26T09:45:17.761Z,14.5
2019-02-26T09:50:23.062Z,16
2019-02-26T09:55:28.278Z,11.8
2019-02-26T10:00:33.831Z,14.3
2019-02-26T10:05:38.514Z,12.2
2019-02-26T10:10:42.121Z,13.2
2019-02-26T10:15:47.720Z,12.8
2019-02-26T10:20:54.591Z,12
2019-02-26T10:26:02.787Z,11.7
2019-02-26T10:31:09.156Z,12.6
2019-02-26T10:36:05.374Z,11.5
2019-02-26T10:41:11.496Z,12.5
2019-02-26T10:46:17.995Z,10.8
2019-02-26T10:51:25.773Z,13.1
2019-02-26T10:56:36.688Z,26.1
2019-02-26T11:01:38.638Z,17.6
2019-02-26T11:06:45.245Z,20.5
2019-02-26T11:11:52.339Z,16.5
2019-02-26T11:16:59.172Z,16.8
2019-02-26T11:22:05.310Z,23.3
2019-02-26T11:27:11.088Z,17.5
2019-02-26T11:32:16.938Z,19.7
2019-02-26T11:37:23.101Z,16.2
2019-02-26T11:42:26.043Z,15.9
2019-02-26T11:47:34.920Z,14.3
2019-02-26T11:52:36.959Z,14.7
2019-02-26T11:57:45.187Z,13.8
2019-02-26T12:02:44.617Z,13.5
2019-02-26T12:07:51.414Z,14.4
2019-02-26T12:12:54.002Z,11.8
2019-02-26T12:17:56.802Z,11.2
2019-02-26T12:23:07.916Z,11.5
2019-02-26T12:28:13.636Z,10.8
2019-02-26T12:33:19.548Z,13.2
2019-02-26T12:38:25.045Z,12.1
2019-02-26T12:43:32.973Z,10.4
2019-02-26T12:48:41.595Z,9.8
2019-02-26T12:53:47.492Z,9
2019-02-26T12:58:48.265Z,11
2019-02-26T13:03:51.684Z,9.6
2019-02-26T13:08:50.780Z,9.6
2019-02-26T13:13:56.717Z,10.3
2019-02-26T13:19:04.539Z,8.2
2019-02-26T13:24:14.334Z,9
2019-02-26T13:34:39.318Z,8
2019-02-26T13:39:45.393Z,8.7
2019-02-26T13:44:51.249Z,8.1
2019-02-26T13:49:56.332Z,9.2
2019-02-26T13:55:02.120Z,7.5
2019-02-26T14:00:07.105Z,8.1
2019-02-26T14:05:12.726Z,7.9
2019-02-26T14:10:18.865Z,21.9
2019-02-26T14:15:24.002Z,19.9
2019-02-26T14:20:30.714Z,23.3
2019-02-26T14:25:36.409Z,25.3
2019-02-26T14:30:41.711Z,27.1
2019-02-26T14:35:47.440Z,23.1
2019-02-26T14:40:53.695Z,20.1
2019-02-26T14:45:59.505Z,19.7
2019-02-26T14:51:05.117Z,18.5
2019-02-26T14:56:11.436Z,17.3
2019-02-26T15:01:17.748Z,14.1
2019-02-26T15:06:25.881Z,16.2
2019-02-26T15:11:31.681Z,15.5
2019-02-26T15:16:38.539Z,15.9
2019-02-26T15:21:44.028Z,13.9
2019-02-26T15:26:50.056Z,12
2019-02-26T15:31:56.162Z,12.2
2019-02-26T15:37:02.889Z,13.2
2019-02-26T15:42:08.942Z,12.7
2019-02-26T15:47:14.829Z,10.5
2019-02-26T15:52:22.185Z,11.9
2019-02-26T15:57:28.541Z,10.3
2019-02-26T16:02:36.838Z,10.9
2019-02-26T16:07:43.242Z,11.5
2019-02-26T16:12:48.897Z,10
2019-02-26T16:17:58.083Z,10.9
2019-02-26T16:22:55.087Z,12.8
2019-02-26T16:28:02.832Z,14.4
2019-02-26T16:33:08.157Z,18.7
2019-02-26T16:38:08.687Z,21.5
2019-02-26T16:43:18.451Z,28.6
2019-02-26T16:48:27.227Z,25.3
2019-02-26T16:53:34.171Z,15.3
2019-02-26T16:58:39.998Z,19.8
2019-02-26T17:03:46.677Z,19.2
2019-02-26T17:08:51.933Z,20.7
2019-02-26T17:13:58.645Z,17.4
2019-02-26T17:19:03.093Z,17.8
2019-02-26T17:24:08.916Z,21.4
2019-02-26T17:29:14.814Z,20.6
2019-02-26T17:34:24.389Z,26
2019-02-26T17:39:29.731Z,29
2019-02-26T17:44:34.982Z,21.8
2019-02-26T17:49:40.732Z,22.9
2019-02-26T17:54:46.353Z,29
2019-02-26T17:59:54.510Z,25.1
2019-02-26T18:05:00.751Z,23.6
2019-02-26T18:10:07.023Z,27.5
2019-02-26T18:15:17.454Z,23.1
2019-02-26T18:20:27.691Z,20.3
2019-02-26T18:25:33.393Z,18.4
2019-02-26T18:30:38.561Z,19.2
2019-02-26T18:35:43.739Z,20.7
2019-02-26T18:40:49.671Z,17.8
2019-02-26T18:45:55.271Z,15.5
2019-02-26T18:51:03.358Z,16.1
2019-02-26T18:56:09.147Z,14.2
2019-02-26T19:01:14.388Z,15.1
2019-02-26T19:06:24.634Z,21.2
2019-02-26T19:11:32.430Z,12.2
2019-02-26T19:16:37.735Z,6.5
2019-02-26T19:21:43.647Z,3.5
2019-02-26T19:26:49.749Z,11.8
2019-02-26T19:31:55.910Z,14.5
2019-02-26T19:37:00.225Z,9.7
2019-02-26T19:42:05.571Z,6.5
2019-02-26T19:47:14.252Z,6.4
2019-02-26T19:52:20.191Z,5.4
2019-02-26T19:57:24.530Z,5.7
2019-02-26T20:02:34.151Z,5.9
2019-02-26T20:07:38.193Z,4.7
2019-02-26T20:12:44.496Z,4.3
2019-02-26T20:17:49.898Z,5.4
2019-02-26T20:22:55.802Z,5.5
2019-02-26T20:28:05.421Z,6.5
2019-02-26T20:33:07.247Z,3.9
2019-02-26T20:38:12.366Z,5.2
2019-02-26T20:43:17.768Z,4
2019-02-26T20:48:23.484Z,4.4
2019-02-26T20:53:30.255Z,5.5
2019-02-26T20:58:35.532Z,4.2
2019-02-26T21:03:41.801Z,3.4
2019-02-26T21:08:46.039Z,3.9
2019-02-26T21:13:52.237Z,4.9
2019-02-26T21:18:57.291Z,4.1
2019-02-26T21:24:06.684Z,4.1
2019-02-26T21:29:12.797Z,5.2
2019-02-26T21:34:18.121Z,4.2
2019-02-26T21:39:23.654Z,3.5
2019-02-26T21:44:29.204Z,5.7
2019-02-26T21:49:34.433Z,4.1
2019-02-26T21:54:40.695Z,6.9
2019-02-26T21:59:50.068Z,10.7
2019-02-26T22:04:55.124Z,7.3
2019-02-26T22:10:00.279Z,7.9
2019-02-26T22:15:00.596Z,7.3
2019-02-26T22:20:09.202Z,9
2019-02-26T22:25:15.764Z,6.8
2019-02-26T22:30:12.577Z,7.1
2019-02-26T22:35:18.114Z,16.5
2019-02-26T22:40:24.024Z,13.8
2019-02-26T22:45:27.631Z,9.7
2019-02-26T22:50:33.802Z,7.4
2019-02-26T22:55:40.010Z,7.6
2019-02-26T23:00:48.117Z,8.6
2019-02-26T23:05:58.703Z,10.6
2019-02-26T23:10:57.304Z,8.9
2019-02-26T23:16:02.804Z,8.8
2019-02-26T23:21:08.435Z,6.9
2019-02-26T23:26:14.727Z,8.4
2019-02-26T23:31:20.718Z,8.2
2019-02-26T23:36:28.526Z,8.4
2019-02-26T23:41:34.689Z,9
2019-02-26T23:46:40.145Z,6.5
2019-02-26T23:51:45.689Z,8.2
2019-02-26T23:56:52.006Z,9.6
